Time;durP1;ratioP1;P1;durP2;ratioP2;P2;SDS_P1;SDS_P2;PMS_P1;PMS_P2;Temp;Humidity;BMP_temperature;BMP_pressure;BME280_temperature;BME280_humidity;BME280_pressure;Samples;Min_cycle;Max_cycle;Signal;HPM_P1;HPM_P2
2022/05/06 00:01:08;;;;;;;64.68;33.58;;;;;;;;;;5032019;28;20559;-75
2022/05/06 00:03:37;;;;;;;69.28;31.98;;;;;;;;;;5032365;28;20049;-75
2022/05/06 00:06:03;;;;;;;68.40;33.25;;;;;;;;;;5032173;28;20021;-75
2022/05/06 00:08:29;;;;;;;65.15;34.83;;;;;;;;;;5030791;28;20029;-75
2022/05/06 00:10:55;;;;;;;78.90;37.58;;;;;;;;;;5030945;28;20103;-75
2022/05/06 00:13:21;;;;;;;75.43;37.20;;;;;;;;;;5032172;28;20033;-75
2022/05/06 00:15:47;;;;;;;68.65;33.90;;;;;;;;;;5032248;28;20032;-75
2022/05/06 00:18:13;;;;;;;64.40;34.35;;;;;;;;;;5030777;28;20022;-75
2022/05/06 00:20:41;;;;;;;66.78;32.85;;;;;;;;;;5031969;28;20036;-75
2022/05/06 00:23:07;;;;;;;70.65;34.13;;;;;;;;;;5032137;28;20063;-75
2022/05/06 00:25:33;;;;;;;67.40;32.88;;;;;;;;;;5032088;28;20014;-75
2022/05/06 00:27:59;;;;;;;63.35;31.42;;;;;;;;;;5032036;28;20383;-75
2022/05/06 00:30:25;;;;;;;61.55;29.98;;;;;;;;;;5026038;28;20045;-75
2022/05/06 00:32:51;;;;;;;59.95;32.75;;;;;;;;;;5012276;28;20080;-75
2022/05/06 00:35:17;;;;;;;63.40;31.35;;;;;;;;;;5012079;28;20061;-75
2022/05/06 00:37:43;;;;;;;58.13;31.10;;;;;;;;;;5012262;28;20747;-74
2022/05/06 00:40:10;;;;;;;59.65;32.17;;;;;;;;;;5011998;28;20077;-75
2022/05/06 00:42:36;;;;;;;62.03;31.23;;;;;;;;;;5027193;28;20099;-75
2022/05/06 00:45:03;;;;;;;62.65;32.63;;;;;;;;;;5012078;28;20196;-75
2022/05/06 00:47:29;;;;;;;60.05;32.55;;;;;;;;;;5015067;28;20021;-75
2022/05/06 00:49:55;;;;;;;60.05;31.98;;;;;;;;;;5031401;28;20132;-75
2022/05/06 00:52:21;;;;;;;64.80;33.47;;;;;;;;;;5031823;28;20025;-75
2022/05/06 00:54:49;;;;;;;62.72;31.67;;;;;;;;;;5030099;28;20075;-75
2022/05/06 00:57:15;;;;;;;61.60;32.67;;;;;;;;;;5030311;28;20460;-75
2022/05/06 01:02:26;;;;;;;72.65;35.22;;;;;;;;;;5031618;28;20053;-75
2022/05/06 01:04:52;;;;;;;58.60;30.70;;;;;;;;;;5031563;28;20035;-75
2022/05/06 01:07:21;;;;;;;73.65;35.17;;;;;;;;;;5031538;28;20525;-75
2022/05/06 01:09:49;;;;;;;62.75;34.08;;;;;;;;;;5031451;28;20028;-75
2022/05/06 01:12:15;;;;;;;70.93;34.28;;;;;;;;;;5031685;28;20539;-75
2022/05/06 01:14:41;;;;;;;66.97;32.92;;;;;;;;;;5031626;28;20029;-75
2022/05/06 01:17:10;;;;;;;72.28;32.80;;;;;;;;;;5031546;28;20093;-75
2022/05/06 01:19:36;;;;;;;84.40;37.70;;;;;;;;;;5031562;28;20065;-75
2022/05/06 01:22:02;;;;;;;97.53;40.55;;;;;;;;;;5031509;28;20372;-75
2022/05/06 01:24:28;;;;;;;103.50;41.42;;;;;;;;;;5031544;28;20029;-75
2022/05/06 01:27:00;;;;;;;122.72;43.67;;;;;;;;;;5031536;28;20485;-75
2022/05/06 01:29:29;;;;;;;110.53;43.38;;;;;;;;;;5031453;28;20258;-75
2022/05/06 01:31:56;;;;;;;208.32;51.28;;;;;;;;;;5031270;28;20025;-75
2022/05/06 01:34:24;;;;;;;124.25;43.85;;;;;;;;;;5031458;28;20048;-75
2022/05/06 01:36:51;;;;;;;127.00;46.75;;;;;;;;;;5031074;28;20017;-76
2022/05/06 01:39:19;;;;;;;138.93;45.10;;;;;;;;;;5031252;28;20427;-75
2022/05/06 01:41:46;;;;;;;652.90;85.22;;;;;;;;;;5046627;28;20026;-75
2022/05/06 01:44:15;;;;;;;213.05;47.70;;;;;;;;;;5031355;28;20025;-75
2022/05/06 01:46:41;;;;;;;212.13;49.50;;;;;;;;;;5034947;28;20463;-75
2022/05/06 01:49:08;;;;;;;226.57;48.45;;;;;;;;;;5034817;28;20475;-75
2022/05/06 01:51:35;;;;;;;230.48;53.55;;;;;;;;;;5034946;28;20029;-75
2022/05/06 01:54:01;;;;;;;141.73;48.08;;;;;;;;;;5035181;28;20018;-75
2022/05/06 01:56:28;;;;;;;328.20;50.78;;;;;;;;;;5034778;28;20872;-76
2022/05/06 01:58:54;;;;;;;206.68;47.38;;;;;;;;;;5034859;28;20108;-75
2022/05/06 02:01:20;;;;;;;286.17;48.65;;;;;;;;;;5042373;28;20434;-75
2022/05/06 02:06:31;;;;;;;240.40;49.88;;;;;;;;;;5034812;28;20040;-75
2022/05/06 02:08:57;;;;;;;184.70;49.83;;;;;;;;;;5034507;28;20719;-75
2022/05/06 02:11:23;;;;;;;130.07;43.97;;;;;;;;;;5034544;28;20444;-76
2022/05/06 02:13:49;;;;;;;459.38;64.10;;;;;;;;;;5034620;28;20036;-75
2022/05/06 02:16:16;;;;;;;114.35;42.83;;;;;;;;;;5034515;28;20022;-75
2022/05/06 02:18:42;;;;;;;509.73;56.28;;;;;;;;;;5034561;28;20503;-76
2022/05/06 02:21:08;;;;;;;128.88;45.95;;;;;;;;;;5032985;28;20029;-76
2022/05/06 02:23:35;;;;;;;139.82;45.22;;;;;;;;;;5034423;28;20033;-75
2022/05/06 02:26:01;;;;;;;287.67;53.28;;;;;;;;;;5034393;28;20025;-75
2022/05/06 02:28:27;;;;;;;254.32;52.72;;;;;;;;;;5034138;28;20488;-76
2022/05/06 02:33:37;;;;;;;190.88;45.33;;;;;;;;;;5014466;28;20028;-75
2022/05/06 02:36:03;;;;;;;223.88;48.92;;;;;;;;;;5014342;28;20050;-75
2022/05/06 02:38:30;;;;;;;117.13;45.33;;;;;;;;;;5014289;28;20025;-75
2022/05/06 02:40:56;;;;;;;140.43;45.55;;;;;;;;;;5014401;28;20030;-75
2022/05/06 02:43:22;;;;;;;481.58;66.65;;;;;;;;;;5014096;28;20033;-75
2022/05/06 02:45:48;;;;;;;566.97;76.35;;;;;;;;;;5029347;28;20487;-75
2022/05/06 02:48:14;;;;;;;143.10;43.05;;;;;;;;;;5014144;28;20100;-75
2022/05/06 02:50:43;;;;;;;251.18;50.90;;;;;;;;;;5013967;28;20041;-75
2022/05/06 02:53:09;;;;;;;149.48;45.33;;;;;;;;;;5014228;28;20542;-75
2022/05/06 02:55:36;;;;;;;326.02;47.28;;;;;;;;;;5013847;28;20132;-75
2022/05/06 02:58:03;;;;;;;164.70;42.03;;;;;;;;;;5028117;28;20026;-76
2022/05/06 03:00:30;;;;;;;143.48;44.70;;;;;;;;;;5013986;28;20050;-75
2022/05/06 03:02:56;;;;;;;523.67;65.57;;;;;;;;;;5033672;28;20029;-75
2022/05/06 03:05:23;;;;;;;552.63;71.82;;;;;;;;;;5033519;28;20029;-76
2022/05/06 03:07:49;;;;;;;400.95;54.92;;;;;;;;;;5033537;28;20013;-75
2022/05/06 03:10:16;;;;;;;243.00;43.92;;;;;;;;;;5033473;28;20072;-76
2022/05/06 03:12:47;;;;;;;125.00;40.53;;;;;;;;;;5033399;28;20026;-76
2022/05/06 03:15:13;;;;;;;217.10;44.47;;;;;;;;;;5033343;28;20057;-76
2022/05/06 03:17:39;;;;;;;245.45;44.67;;;;;;;;;;5031988;28;20467;-76
2022/05/06 03:20:08;;;;;;;562.70;63.58;;;;;;;;;;5033141;28;20040;-75
2022/05/06 03:22:40;;;;;;;191.30;39.13;;;;;;;;;;5035687;28;20087;-75
2022/05/06 03:25:06;;;;;;;186.02;39.92;;;;;;;;;;5031860;28;20037;-75
2022/05/06 03:30:19;;;;;;;164.10;39.75;;;;;;;;;;5032718;28;20116;-75
2022/05/06 03:32:45;;;;;;;204.82;34.75;;;;;;;;;;5048254;28;20052;-76
2022/05/06 03:35:11;;;;;;;143.52;32.53;;;;;;;;;;5033006;28;20079;-75
2022/05/06 03:37:38;;;;;;;183.57;30.77;;;;;;;;;;5033095;28;20558;-76
2022/05/06 03:40:05;;;;;;;336.83;43.45;;;;;;;;;;5032864;28;20052;-75
2022/05/06 03:42:31;;;;;;;372.75;49.92;;;;;;;;;;5032803;28;20028;-75
2022/05/06 03:44:59;;;;;;;104.43;34.08;;;;;;;;;;5032675;28;20463;-77
2022/05/06 03:47:25;;;;;;;144.48;34.33;;;;;;;;;;5032739;28;20017;-77
2022/05/06 03:52:36;;;;;;;126.55;28.65;;;;;;;;;;5032750;28;20122;-76
2022/05/06 03:55:02;;;;;;;254.75;31.13;;;;;;;;;;5032556;28;20030;-75
2022/05/06 03:57:28;;;;;;;106.85;28.65;;;;;;;;;;5032703;28;20107;-78
2022/05/06 03:59:54;;;;;;;185.20;31.27;;;;;;;;;;5032380;28;20479;-77
2022/05/06 04:02:20;;;;;;;78.82;27.30;;;;;;;;;;5024257;28;20033;-77
2022/05/06 04:04:47;;;;;;;112.68;26.20;;;;;;;;;;5032471;28;20037;-77
2022/05/06 04:07:14;;;;;;;228.27;26.75;;;;;;;;;;5032122;28;20426;-77
2022/05/06 04:09:41;;;;;;;171.48;28.00;;;;;;;;;;5032166;28;20112;-77
2022/05/06 04:12:07;;;;;;;76.75;26.58;;;;;;;;;;5032376;28;20033;-77
2022/05/06 04:14:34;;;;;;;164.02;29.38;;;;;;;;;;5032245;28;20036;-76
2022/05/06 04:17:02;;;;;;;106.40;26.95;;;;;;;;;;5032186;28;20052;-76
2022/05/06 04:19:28;;;;;;;105.68;24.77;;;;;;;;;;5030722;28;20026;-77
2022/05/06 04:24:39;;;;;;;414.88;47.45;;;;;;;;;;5032149;28;20052;-77
2022/05/06 04:27:06;;;;;;;434.88;45.90;;;;;;;;;;5030886;28;20026;-77
2022/05/06 04:29:32;;;;;;;173.27;30.02;;;;;;;;;;5030600;28;20021;-76
2022/05/06 04:31:58;;;;;;;121.55;30.38;;;;;;;;;;5013603;28;20025;-77
2022/05/06 04:34:24;;;;;;;272.42;32.75;;;;;;;;;;5012307;28;20022;-77
2022/05/06 04:36:50;;;;;;;206.88;32.25;;;;;;;;;;5012129;28;20030;-76
2022/05/06 04:39:16;;;;;;;64.93;22.83;;;;;;;;;;5012173;28;20029;-76
2022/05/06 04:41:43;;;;;;;64.10;20.67;;;;;;;;;;5012135;28;20075;-76
2022/05/06 04:44:09;;;;;;;159.32;25.45;;;;;;;;;;5012052;28;20448;-76
2022/05/06 04:46:35;;;;;;;62.20;19.48;;;;;;;;;;5012107;28;20517;-77
2022/05/06 04:49:01;;;;;;;43.72;18.23;;;;;;;;;;5012022;28;20061;-76
2022/05/06 04:51:27;;;;;;;55.22;17.85;;;;;;;;;;5011879;28;20036;-77
2022/05/06 04:53:55;;;;;;;177.63;18.35;;;;;;;;;;5012246;28;20025;-77
2022/05/06 04:56:22;;;;;;;78.57;15.52;;;;;;;;;;5026913;28;20160;-77
2022/05/06 04:58:48;;;;;;;180.98;23.50;;;;;;;;;;5011863;28;20396;-76
2022/05/06 05:01:14;;;;;;;295.98;30.00;;;;;;;;;;5018170;28;20045;-76
2022/05/06 05:03:40;;;;;;;214.52;26.67;;;;;;;;;;5031639;28;20076;-76
2022/05/06 05:06:07;;;;;;;89.53;20.13;;;;;;;;;;5031602;28;20091;-76
2022/05/06 05:08:33;;;;;;;199.30;26.25;;;;;;;;;;5031477;28;20390;-76
2022/05/06 05:11:03;;;;;;;186.65;26.17;;;;;;;;;;5031824;28;20091;-77
2022/05/06 05:13:32;;;;;;;67.10;20.20;;;;;;;;;;5030024;28;20025;-76
2022/05/06 05:15:58;;;;;;;108.25;21.02;;;;;;;;;;5031640;28;20401;-76
2022/05/06 05:18:24;;;;;;;54.58;18.77;;;;;;;;;;5031624;28;20036;-77
2022/05/06 05:20:51;;;;;;;218.50;28.92;;;;;;;;;;5033949;28;20032;-77
2022/05/06 05:23:17;;;;;;;300.33;34.75;;;;;;;;;;5026919;28;20026;-76
2022/05/06 05:25:43;;;;;;;148.27;23.83;;;;;;;;;;5024281;28;20112;-77
2022/05/06 05:28:09;;;;;;;238.25;28.63;;;;;;;;;;5026098;28;20029;-76
2022/05/06 05:30:35;;;;;;;325.00;36.83;;;;;;;;;;5023184;28;20028;-77
2022/05/06 05:33:02;;;;;;;188.45;29.35;;;;;;;;;;5025879;28;20018;-76
2022/05/06 05:35:29;;;;;;;343.77;32.03;;;;;;;;;;5023727;28;20140;-76
2022/05/06 05:37:56;;;;;;;149.23;23.90;;;;;;;;;;5025092;28;20013;-76
2022/05/06 05:40:22;;;;;;;213.50;26.98;;;;;;;;;;5025667;28;20018;-77
2022/05/06 05:42:48;;;;;;;602.58;44.33;;;;;;;;;;5023878;28;20352;-77
2022/05/06 05:50:43;;;;;;;332.67;29.75;;;;;;;;;;5034869;28;20095;-76
2022/05/06 05:53:09;;;;;;;85.75;21.55;;;;;;;;;;5035460;28;20737;-78
2022/05/06 05:55:35;;;;;;;300.58;33.33;;;;;;;;;;5033451;28;20029;-79
2022/05/06 05:58:02;;;;;;;150.05;20.85;;;;;;;;;;5018987;28;20073;-78
2022/05/06 06:00:28;;;;;;;151.05;27.38;;;;;;;;;;5026028;28;20057;-78
2022/05/06 06:02:56;;;;;;;91.32;23.67;;;;;;;;;;5026372;28;20036;-78
2022/05/06 06:05:22;;;;;;;234.40;31.10;;;;;;;;;;5031172;28;20025;-77
2022/05/06 06:07:48;;;;;;;65.65;18.17;;;;;;;;;;5034543;28;20407;-76
2022/05/06 06:10:14;;;;;;;138.57;20.92;;;;;;;;;;5035048;28;20038;-75
2022/05/06 06:12:40;;;;;;;79.03;18.25;;;;;;;;;;5034057;28;20024;-77
2022/05/06 06:15:07;;;;;;;69.65;17.70;;;;;;;;;;5033141;28;20033;-77
2022/05/06 06:17:33;;;;;;;149.52;18.52;;;;;;;;;;5032450;28;20021;-77
2022/05/06 06:20:02;;;;;;;71.80;15.60;;;;;;;;;;5048123;28;20415;-76
2022/05/06 06:22:28;;;;;;;114.80;19.02;;;;;;;;;;5033076;28;20121;-77
2022/05/06 06:24:54;;;;;;;40.05;15.88;;;;;;;;;;5034666;28;20409;-76
2022/05/06 06:27:20;;;;;;;224.40;27.13;;;;;;;;;;5028723;28;20033;-77
2022/05/06 06:29:49;;;;;;;133.48;20.55;;;;;;;;;;5023844;28;20362;-76
2022/05/06 06:32:16;;;;;;;27.95;15.32;;;;;;;;;;5025592;28;20117;-76
2022/05/06 06:34:42;;;;;;;170.93;23.40;;;;;;;;;;5021744;28;20033;-76
2022/05/06 06:37:08;;;;;;;52.28;16.63;;;;;;;;;;5022993;28;20360;-76
2022/05/06 06:39:34;;;;;;;27.20;14.00;;;;;;;;;;5023943;28;20406;-76
2022/05/06 06:42:00;;;;;;;61.53;15.23;;;;;;;;;;5022011;28;20530;-77
2022/05/06 06:44:27;;;;;;;108.55;17.38;;;;;;;;;;5024944;28;20033;-76
2022/05/06 06:46:55;;;;;;;97.10;18.73;;;;;;;;;;5024841;28;20028;-76
2022/05/06 06:49:21;;;;;;;40.15;15.90;;;;;;;;;;5024391;28;20017;-76
2022/05/06 06:51:47;;;;;;;27.60;13.77;;;;;;;;;;5028263;28;20112;-76
2022/05/06 06:54:13;;;;;;;24.48;13.10;;;;;;;;;;5034173;28;20036;-76
2022/05/06 06:56:39;;;;;;;29.77;14.05;;;;;;;;;;5033591;28;20026;-77
2022/05/06 06:59:05;;;;;;;67.32;15.90;;;;;;;;;;5032464;28;20108;-77
2022/05/06 07:01:33;;;;;;;28.83;13.27;;;;;;;;;;5033574;28;20045;-77
2022/05/06 07:04:00;;;;;;;43.10;12.90;;;;;;;;;;5033799;28;20026;-76
2022/05/06 07:11:56;;;;;;;21.30;10.38;;;;;;;;;;5034246;28;20035;-76
2022/05/06 07:14:23;;;;;;;19.40;12.10;;;;;;;;;;5033866;28;20014;-77
2022/05/06 07:16:50;;;;;;;20.40;12.63;;;;;;;;;;5033663;28;20028;-76
2022/05/06 07:19:16;;;;;;;18.42;12.18;;;;;;;;;;5033437;28;20047;-77
2022/05/06 07:21:42;;;;;;;20.58;12.35;;;;;;;;;;5033665;28;20399;-77
2022/05/06 07:24:08;;;;;;;22.33;14.25;;;;;;;;;;5032257;28;20068;-78
2022/05/06 07:26:34;;;;;;;24.83;14.18;;;;;;;;;;5033375;28;20022;-75
2022/05/06 07:29:00;;;;;;;27.25;15.35;;;;;;;;;;5033366;28;20033;-77
2022/05/06 07:31:26;;;;;;;33.08;16.20;;;;;;;;;;5033336;28;20022;-77
2022/05/06 07:33:53;;;;;;;20.77;13.73;;;;;;;;;;5033478;28;20026;-76
2022/05/06 07:36:19;;;;;;;25.98;14.45;;;;;;;;;;5026684;28;20022;-76
2022/05/06 07:38:45;;;;;;;83.65;23.88;;;;;;;;;;5024540;28;20104;-76
2022/05/06 07:41:11;;;;;;;72.57;21.15;;;;;;;;;;5014604;28;20026;-76
2022/05/06 07:43:37;;;;;;;85.28;24.35;;;;;;;;;;5011446;28;20026;-79
2022/05/06 07:46:03;;;;;;;47.70;19.40;;;;;;;;;;5013493;28;20084;-76
2022/05/06 07:48:29;;;;;;;35.35;16.95;;;;;;;;;;5013333;28;20022;-77
2022/05/06 07:50:56;;;;;;;37.63;19.25;;;;;;;;;;5013215;28;20483;-77
2022/05/06 07:53:22;;;;;;;26.27;16.10;;;;;;;;;;5013680;28;20057;-75
2022/05/06 07:55:48;;;;;;;24.80;16.48;;;;;;;;;;5012753;28;20033;-75
2022/05/06 07:58:14;;;;;;;29.70;18.08;;;;;;;;;;5012772;28;20072;-76
2022/05/06 08:00:40;;;;;;;25.52;15.35;;;;;;;;;;5014298;28;20053;-75
2022/05/06 08:05:56;;;;;;;23.98;14.98;;;;;;;;;;5032228;28;20091;-76
2022/05/06 08:08:22;;;;;;;21.75;14.25;;;;;;;;;;5030718;28;20101;-76
2022/05/06 08:10:48;;;;;;;22.35;14.43;;;;;;;;;;5032157;28;20076;-76
2022/05/06 08:13:14;;;;;;;22.75;14.43;;;;;;;;;;5032058;28;20021;-76
2022/05/06 08:15:40;;;;;;;20.92;14.02;;;;;;;;;;5031441;28;20079;-76
2022/05/06 08:18:07;;;;;;;22.92;14.75;;;;;;;;;;5032212;28;20415;-76
2022/05/06 08:20:33;;;;;;;22.02;14.38;;;;;;;;;;5031925;28;20025;-76
2022/05/06 08:23:00;;;;;;;22.50;14.23;;;;;;;;;;5031985;28;20124;-76
2022/05/06 08:25:27;;;;;;;22.08;14.77;;;;;;;;;;5031963;28;20033;-76
2022/05/06 08:27:53;;;;;;;27.50;14.27;;;;;;;;;;5032068;28;20034;-76
2022/05/06 08:30:19;;;;;;;23.55;16.50;;;;;;;;;;5031705;28;20077;-76
2022/05/06 08:32:45;;;;;;;29.02;17.58;;;;;;;;;;5031952;28;20021;-76
2022/05/06 08:35:12;;;;;;;26.58;17.88;;;;;;;;;;5031626;28;20105;-76
2022/05/06 08:37:42;;;;;;;24.85;16.23;;;;;;;;;;5031817;28;20018;-76
2022/05/06 08:40:09;;;;;;;23.65;16.80;;;;;;;;;;5031766;28;20029;-76
2022/05/06 08:42:35;;;;;;;19.85;14.65;;;;;;;;;;5031865;28;20028;-76
2022/05/06 08:53:16;;;;;;;25.35;15.77;;;;;;;;;;5031795;28;20483;-76
2022/05/06 08:55:42;;;;;;;22.27;14.25;;;;;;;;;;5030622;28;20182;-76
2022/05/06 08:58:08;;;;;;;18.00;12.65;;;;;;;;;;5031628;28;20349;-76
2022/05/06 09:00:34;;;;;;;21.67;12.75;;;;;;;;;;5031175;28;20049;-76
2022/05/06 09:03:00;;;;;;;19.10;13.10;;;;;;;;;;5031561;28;20642;-76
2022/05/06 09:05:26;;;;;;;17.63;12.45;;;;;;;;;;5046371;28;20036;-76
2022/05/06 09:08:00;;;;;;;16.05;11.50;;;;;;;;;;5031400;28;20026;-76
2022/05/06 09:10:26;;;;;;;13.20;10.02;;;;;;;;;;5031482;28;20105;-76
2022/05/06 09:12:55;;;;;;;19.63;11.73;;;;;;;;;;5031368;28;20547;-76
2022/05/06 09:18:07;;;;;;;16.90;11.05;;;;;;;;;;5031778;28;20040;-76
2022/05/06 09:20:34;;;;;;;14.63;10.30;;;;;;;;;;5031180;28;20022;-76
2022/05/06 09:23:18;;;;;;;14.05;10.10;;;;;;;;;;5031442;28;20032;-76
2022/05/06 09:25:51;;;;;;;13.55;10.00;;;;;;;;;;5031376;28;20025;-76
2022/05/06 09:28:35;;;;;;;12.38;8.50;;;;;;;;;;5029981;28;20028;-76
2022/05/06 09:31:11;;;;;;;12.52;9.30;;;;;;;;;;5029636;28;20033;-76
2022/05/06 09:33:41;;;;;;;12.20;9.13;;;;;;;;;;5046406;28;20037;-76
2022/05/06 09:36:23;;;;;;;12.50;9.43;;;;;;;;;;5031212;28;20037;-76
2022/05/06 09:39:13;;;;;;;11.43;8.32;;;;;;;;;;5031252;28;20024;-76
2022/05/06 09:41:39;;;;;;;12.18;9.25;;;;;;;;;;5031319;28;20144;-76
2022/05/06 09:44:06;;;;;;;12.25;8.20;;;;;;;;;;5031149;28;20021;-76
2022/05/06 09:46:33;;;;;;;11.10;8.15;;;;;;;;;;5031099;28;20022;-76
2022/05/06 09:49:00;;;;;;;10.68;8.20;;;;;;;;;;5046303;28;20490;-76
2022/05/06 09:51:33;;;;;;;10.32;7.95;;;;;;;;;;5031035;28;20494;-76
2022/05/06 09:53:59;;;;;;;9.23;7.78;;;;;;;;;;5030996;28;20520;-76
2022/05/06 09:56:25;;;;;;;12.13;7.43;;;;;;;;;;5031034;28;20060;-76
2022/05/06 09:58:51;;;;;;;12.73;7.90;;;;;;;;;;5030951;28;20029;-76
2022/05/06 10:01:18;;;;;;;9.18;7.05;;;;;;;;;;5030752;28;20068;-76
2022/05/06 10:03:44;;;;;;;8.13;7.10;;;;;;;;;;5046090;28;20033;-76
2022/05/06 10:06:10;;;;;;;11.88;7.13;;;;;;;;;;5031916;28;20446;-76
2022/05/06 10:08:38;;;;;;;8.93;6.80;;;;;;;;;;5034263;28;20025;-76
2022/05/06 10:11:05;;;;;;;12.18;7.10;;;;;;;;;;5033068;28;20518;-76
2022/05/06 10:13:32;;;;;;;8.43;6.45;;;;;;;;;;5034138;28;20210;-76
2022/05/06 10:15:59;;;;;;;7.82;6.53;;;;;;;;;;5034344;28;20029;-76
2022/05/06 10:18:35;;;;;;;8.35;6.93;;;;;;;;;;5032805;28;20068;-76
2022/05/06 10:21:02;;;;;;;9.70;6.70;;;;;;;;;;5033909;28;20029;-76
2022/05/06 10:23:47;;;;;;;8.35;6.25;;;;;;;;;;5034437;28;20104;-76
2022/05/06 10:26:32;;;;;;;9.48;6.63;;;;;;;;;;5021660;28;20190;-76
2022/05/06 10:34:29;;;;;;;7.47;6.18;;;;;;;;;;5016891;28;20032;-76
2022/05/06 10:36:56;;;;;;;8.00;5.70;;;;;;;;;;5014196;28;20029;-76
2022/05/06 10:39:26;;;;;;;6.82;5.65;;;;;;;;;;5014186;28;20449;-76
2022/05/06 10:42:04;;;;;;;7.15;5.95;;;;;;;;;;5014287;28;20034;-75
2022/05/06 10:44:39;;;;;;;9.25;6.30;;;;;;;;;;5014166;28;20127;-75
2022/05/06 10:47:11;;;;;;;7.40;5.97;;;;;;;;;;5014122;28;20018;-75
2022/05/06 10:49:42;;;;;;;12.18;6.43;;;;;;;;;;5014105;28;20030;-76
2022/05/06 10:52:14;;;;;;;9.13;6.03;;;;;;;;;;5013974;28;20105;-76
2022/05/06 10:54:41;;;;;;;9.07;6.15;;;;;;;;;;5014414;28;20460;-76
2022/05/06 10:57:07;;;;;;;7.55;5.75;;;;;;;;;;5014065;28;20099;-76
2022/05/06 10:59:54;;;;;;;7.28;5.25;;;;;;;;;;5012497;28;20026;-76
2022/05/06 11:02:27;;;;;;;7.97;6.28;;;;;;;;;;5029056;28;20054;-76
2022/05/06 11:04:54;;;;;;;8.68;5.90;;;;;;;;;;5022180;28;20033;-77
2022/05/06 11:07:20;;;;;;;8.10;5.72;;;;;;;;;;5020803;28;20040;-78
2022/05/06 11:09:47;;;;;;;8.80;6.45;;;;;;;;;;5025532;28;20414;-77
2022/05/06 11:12:29;;;;;;;9.35;6.00;;;;;;;;;;5024121;28;20056;-77
2022/05/06 11:14:56;;;;;;;8.82;6.13;;;;;;;;;;5021795;28;20021;-77
2022/05/06 11:17:25;;;;;;;9.60;6.50;;;;;;;;;;5019962;28;20022;-77
2022/05/06 11:19:51;;;;;;;6.63;5.85;;;;;;;;;;5020515;28;20440;-77
2022/05/06 11:22:17;;;;;;;9.27;6.18;;;;;;;;;;5022199;28;20112;-77
2022/05/06 11:24:44;;;;;;;8.35;5.25;;;;;;;;;;5024846;28;20103;-77
2022/05/06 11:27:20;;;;;;;7.47;5.60;;;;;;;;;;5023232;28;20240;-77
2022/05/06 11:29:50;;;;;;;6.35;5.65;;;;;;;;;;5022464;28;20025;-77
2022/05/06 11:32:16;;;;;;;11.50;5.72;;;;;;;;;;5023661;28;20476;-78
2022/05/06 11:34:47;;;;;;;7.80;5.68;;;;;;;;;;5029464;28;20048;-78
2022/05/06 11:37:26;;;;;;;7.20;5.90;;;;;;;;;;5033975;28;20021;-77
2022/05/06 11:40:18;;;;;;;7.60;5.75;;;;;;;;;;5032924;28;20075;-76
2022/05/06 11:42:39;;;;;;;9.18;5.60;;;;;;;;;;5033017;28;20112;-76
2022/05/06 11:47:50;;;;;;;7.80;7.00;;;;;;;;;;5022241;28;20166;-78
2022/05/06 11:50:16;;;;;;;7.40;6.05;;;;;;;;;;5020255;28;20061;-78
2022/05/06 11:52:44;;;;;;;10.07;6.63;;;;;;;;;;5020988;28;20037;-78
2022/05/06 11:55:10;;;;;;;7.43;6.30;;;;;;;;;;5023717;28;20100;-77
2022/05/06 11:57:37;;;;;;;7.75;5.70;;;;;;;;;;5021997;28;20037;-77
2022/05/06 12:00:04;;;;;;;8.02;6.03;;;;;;;;;;5023895;28;20041;-77
2022/05/06 12:02:31;;;;;;;9.20;6.40;;;;;;;;;;5024652;28;20038;-77
2022/05/06 12:04:57;;;;;;;9.73;5.93;;;;;;;;;;5023564;28;20022;-77
2022/05/06 12:07:40;;;;;;;7.00;6.13;;;;;;;;;;5020650;28;20021;-77
2022/05/06 12:10:06;;;;;;;9.48;6.43;;;;;;;;;;5023355;28;20030;-77
2022/05/06 12:12:32;;;;;;;10.25;5.60;;;;;;;;;;5023132;28;20044;-77
2022/05/06 12:15:11;;;;;;;7.35;6.15;;;;;;;;;;5020746;28;20014;-77
2022/05/06 12:17:37;;;;;;;12.90;5.90;;;;;;;;;;5026368;28;20136;-77
2022/05/06 12:20:04;;;;;;;9.75;6.47;;;;;;;;;;5019360;28;20037;-77
2022/05/06 12:22:30;;;;;;;7.43;6.03;;;;;;;;;;5020707;28;20470;-76
2022/05/06 12:24:58;;;;;;;8.13;6.10;;;;;;;;;;5015457;28;20053;-78
2022/05/06 12:27:31;;;;;;;7.72;6.03;;;;;;;;;;5017799;28;20028;-77
2022/05/06 12:29:58;;;;;;;9.82;5.72;;;;;;;;;;5011601;28;20029;-80
2022/05/06 12:32:24;;;;;;;10.30;6.55;;;;;;;;;;5012663;28;20036;-76
2022/05/06 12:35:03;;;;;;;8.30;5.88;;;;;;;;;;5029442;28;20494;-77
2022/05/06 12:37:29;;;;;;;9.23;5.90;;;;;;;;;;5032461;28;20036;-78
2022/05/06 12:39:58;;;;;;;8.00;5.85;;;;;;;;;;5032336;28;20056;-78
2022/05/06 12:42:24;;;;;;;10.95;6.70;;;;;;;;;;5032339;28;20033;-79
2022/05/06 12:44:50;;;;;;;14.23;6.53;;;;;;;;;;5032624;28;20029;-79
2022/05/06 12:50:12;;;;;;;10.00;6.25;;;;;;;;;;5032213;28;20095;-79
2022/05/06 12:52:39;;;;;;;8.95;5.68;;;;;;;;;;5029326;28;20026;-79
2022/05/06 12:55:05;;;;;;;10.95;6.65;;;;;;;;;;5031445;28;20120;-78
2022/05/06 12:57:31;;;;;;;10.55;6.45;;;;;;;;;;5032218;28;20024;-77
2022/05/06 12:59:58;;;;;;;8.77;5.88;;;;;;;;;;5030153;28;20030;-77
2022/05/06 13:02:24;;;;;;;9.30;5.75;;;;;;;;;;5031718;28;20025;-79
2022/05/06 13:04:50;;;;;;;8.93;6.07;;;;;;;;;;5043309;28;20478;-82
2022/05/06 13:07:16;;;;;;;8.85;5.70;;;;;;;;;;5010595;28;20041;-84
2022/05/06 13:09:42;;;;;;;8.85;5.60;;;;;;;;;;5012166;28;20033;-81
2022/05/06 13:12:09;;;;;;;8.32;6.05;;;;;;;;;;5011106;28;20472;-78
2022/05/06 13:14:35;;;;;;;9.30;5.88;;;;;;;;;;5012132;28;20101;-77
2022/05/06 13:17:01;;;;;;;10.40;7.13;;;;;;;;;;5011787;28;20022;-78
2022/05/06 13:19:29;;;;;;;11.27;6.95;;;;;;;;;;5011812;28;20112;-78
2022/05/06 13:21:55;;;;;;;10.95;6.70;;;;;;;;;;5011731;28;20028;-77
2022/05/06 13:24:23;;;;;;;12.70;7.10;;;;;;;;;;5011745;28;20061;-76
2022/05/06 13:26:49;;;;;;;14.85;8.00;;;;;;;;;;5012101;28;20029;-78
2022/05/06 13:29:15;;;;;;;12.00;7.70;;;;;;;;;;5011837;28;20053;-78
2022/05/06 13:31:41;;;;;;;13.60;8.23;;;;;;;;;;5026049;28;20026;-76
2022/05/06 13:34:07;;;;;;;10.75;7.28;;;;;;;;;;5031392;28;20040;-76
2022/05/06 13:36:34;;;;;;;12.90;8.35;;;;;;;;;;5031251;28;20025;-76
2022/05/06 13:39:00;;;;;;;14.13;7.50;;;;;;;;;;5029980;28;20403;-76
2022/05/06 13:41:27;;;;;;;16.58;8.23;;;;;;;;;;5033019;28;20030;-75
2022/05/06 13:43:53;;;;;;;27.73;8.65;;;;;;;;;;5035239;28;20022;-74
2022/05/06 13:46:19;;;;;;;18.33;8.55;;;;;;;;;;5035111;28;20025;-75
2022/05/06 13:48:46;;;;;;;12.52;8.68;;;;;;;;;;5035120;28;20060;-78
2022/05/06 13:51:12;;;;;;;18.08;9.88;;;;;;;;;;5035067;28;20026;-78
2022/05/06 13:53:38;;;;;;;17.63;9.65;;;;;;;;;;5035046;28;20037;-78
2022/05/06 13:59:05;;;;;;;18.02;10.77;;;;;;;;;;5033534;28;20422;-76
2022/05/06 14:01:31;;;;;;;19.20;10.82;;;;;;;;;;5026096;28;20051;-76
2022/05/06 14:03:57;;;;;;;18.67;12.00;;;;;;;;;;5021152;28;20038;-77
2022/05/06 14:06:23;;;;;;;17.50;11.35;;;;;;;;;;5035886;28;20029;-77
2022/05/06 14:08:49;;;;;;;22.50;12.60;;;;;;;;;;5020764;28;20052;-77
2022/05/06 14:11:16;;;;;;;22.70;13.38;;;;;;;;;;5019882;28;20526;-77
2022/05/06 14:13:42;;;;;;;24.35;12.75;;;;;;;;;;5021319;28;20034;-76
2022/05/06 14:16:09;;;;;;;22.35;12.77;;;;;;;;;;5034523;28;20054;-77
2022/05/06 14:18:35;;;;;;;20.42;12.75;;;;;;;;;;5021741;28;20022;-77
2022/05/06 14:21:01;;;;;;;23.33;12.80;;;;;;;;;;5018315;28;20108;-76
2022/05/06 14:23:28;;;;;;;20.48;11.82;;;;;;;;;;5020993;28;20052;-76
2022/05/06 14:25:55;;;;;;;24.30;12.80;;;;;;;;;;5046664;28;20030;-76
2022/05/06 14:28:21;;;;;;;19.92;11.80;;;;;;;;;;5022161;28;20045;-76
2022/05/06 14:30:47;;;;;;;23.85;12.85;;;;;;;;;;5023785;28;20041;-76
2022/05/06 14:33:13;;;;;;;21.92;11.50;;;;;;;;;;5026725;28;20029;-76
2022/05/06 14:35:40;;;;;;;24.08;11.60;;;;;;;;;;5033735;28;20104;-76
2022/05/06 14:38:06;;;;;;;17.55;10.95;;;;;;;;;;5049431;28;20025;-75
2022/05/06 14:40:32;;;;;;;19.55;10.05;;;;;;;;;;5034348;28;20052;-77
2022/05/06 14:42:58;;;;;;;20.52;11.13;;;;;;;;;;5034045;28;20037;-78
2022/05/06 14:45:25;;;;;;;14.80;10.00;;;;;;;;;;5033877;28;20075;-77
2022/05/06 14:47:51;;;;;;;20.52;10.82;;;;;;;;;;5049074;28;20029;-78
2022/05/06 14:50:17;;;;;;;20.25;11.00;;;;;;;;;;5048824;28;20055;-77
2022/05/06 14:52:43;;;;;;;18.15;11.13;;;;;;;;;;5032603;28;20026;-77
2022/05/06 14:55:10;;;;;;;16.77;10.40;;;;;;;;;;5033883;28;20037;-77
2022/05/06 14:57:36;;;;;;;22.48;10.98;;;;;;;;;;5033583;28;20032;-78
2022/05/06 15:00:06;;;;;;;18.92;10.85;;;;;;;;;;5022001;28;20449;-78
2022/05/06 15:02:33;;;;;;;19.85;10.73;;;;;;;;;;5024783;28;20087;-77
2022/05/06 15:04:59;;;;;;;17.17;11.02;;;;;;;;;;5022929;28;20025;-77
2022/05/06 15:07:26;;;;;;;16.75;10.50;;;;;;;;;;5038029;28;20018;-78
2022/05/06 15:09:52;;;;;;;17.30;10.50;;;;;;;;;;5022302;28;20472;-78
2022/05/06 15:12:19;;;;;;;21.25;11.38;;;;;;;;;;5024032;28;20029;-77
2022/05/06 15:14:45;;;;;;;16.80;10.52;;;;;;;;;;5022770;28;20030;-77